sensor_id;sensor_type;location;lat;lon;timestamp;temperature;humidity
2391;DHT22;22957;50.824;4.360;2024-01-16T00:02:12;4.70;99.90
2391;DHT22;22957;50.824;4.360;2024-01-16T00:04:37;5.20;99.90
2391;DHT22;22957;50.824;4.360;2024-01-16T00:07:04;4.60;99.90
2391;DHT22;22957;50.824;4.360;2024-01-16T00:09:32;4.80;99.90
2391;DHT22;22957;50.824;4.360;2024-01-16T00:11:57;4.80;99.90
2391;DHT22;22957;50.824;4.360;2024-01-16T00:14:23;4.40;99.90
2391;DHT22;22957;50.824;4.360;2024-01-16T00:16:48;4.60;99.90
2391;DHT22;22957;50.824;4.360;2024-01-16T00:19:14;4.30;99.90
2391;DHT22;22957;50.824;4.360;2024-01-16T00:21:44;4.10;99.90
2391;DHT22;22957;50.824;4.360;2024-01-16T00:24:14;4.10;99.90
2391;DHT22;22957;50.824;4.360;2024-01-16T00:26:39;4.40;99.90
2391;DHT22;22957;50.824;4.360;2024-01-16T00:29:05;4.10;99.90
2391;DHT22;22957;50.824;4.360;2024-01-16T00:31:31;4.10;99.90
2391;DHT22;22957;50.824;4.360;2024-01-16T00:33:56;4.40;99.90
2391;DHT22;22957;50.824;4.360;2024-01-16T00:36:22;4.30;99.90
2391;DHT22;22957;50.824;4.360;2024-01-16T00:38:48;4.20;99.90
2391;DHT22;22957;50.824;4.360;2024-01-16T00:41:13;4.30;99.90
2391;DHT22;22957;50.824;4.360;2024-01-16T00:43:43;4.30;99.90
2391;DHT22;22957;50.824;4.360;2024-01-16T00:46:09;4.30;99.90
2391;DHT22;22957;50.824;4.360;2024-01-16T00:48:34;4.30;99.90
2391;DHT22;22957;50.824;4.360;2024-01-16T00:51:00;4.50;99.90
2391;DHT22;22957;50.824;4.360;2024-01-16T00:53:29;4.50;99.90
2391;DHT22;22957;50.824;4.360;2024-01-16T00:55:54;4.60;99.90
2391;DHT22;22957;50.824;4.360;2024-01-16T00:58:21;4.10;99.90
2391;DHT22;22957;50.824;4.360;2024-01-16T01:00:47;4.40;99.90
2391;DHT22;22957;50.824;4.360;2024-01-16T01:03:13;4.20;99.90
2391;DHT22;22957;50.824;4.360;2024-01-16T01:05:38;4.10;99.90
2391;DHT22;22957;50.824;4.360;2024-01-16T01:08:04;3.60;99.90
2391;DHT22;22957;50.824;4.360;2024-01-16T01:10:30;4.00;99.90
2391;DHT22;22957;50.824;4.360;2024-01-16T01:12:55;3.90;99.90
2391;DHT22;22957;50.824;4.360;2024-01-16T01:15:21;3.80;99.90
2391;DHT22;22957;50.824;4.360;2024-01-16T01:17:49;4.20;99.90
2391;DHT22;22957;50.824;4.360;2024-01-16T01:20:15;4.00;99.90
2391;DHT22;22957;50.824;4.360;2024-01-16T01:22:40;3.80;99.90
2391;DHT22;22957;50.824;4.360;2024-01-16T01:25:07;4.40;99.90
2391;DHT22;22957;50.824;4.360;2024-01-16T01:27:33;3.80;99.90
2391;DHT22;22957;50.824;4.360;2024-01-16T01:29:58;4.20;99.90
2391;DHT22;22957;50.824;4.360;2024-01-16T01:32:24;4.40;99.90
2391;DHT22;22957;50.824;4.360;2024-01-16T01:34:49;4.50;99.90
2391;DHT22;22957;50.824;4.360;2024-01-16T01:37:15;4.60;99.90
2391;DHT22;22957;50.824;4.360;2024-01-16T01:39:40;4.20;99.90
2391;DHT22;22957;50.824;4.360;2024-01-16T01:42:06;4.50;99.90
2391;DHT22;22957;50.824;4.360;2024-01-16T01:44:32;4.40;99.90
2391;DHT22;22957;50.824;4.360;2024-01-16T01:46:58;4.40;99.90
2391;DHT22;22957;50.824;4.360;2024-01-16T01:49:25;4.40;99.90
2391;DHT22;22957;50.824;4.360;2024-01-16T01:51:51;4.20;99.90
2391;DHT22;22957;50.824;4.360;2024-01-16T01:54:17;4.60;99.90
2391;DHT22;22957;50.824;4.360;2024-01-16T01:56:45;4.90;99.90
2391;DHT22;22957;50.824;4.360;2024-01-16T01:59:11;4.00;99.90
2391;DHT22;22957;50.824;4.360;2024-01-16T02:01:38;4.10;99.90
2391;DHT22;22957;50.824;4.360;2024-01-16T02:04:06;4.20;99.90
2391;DHT22;22957;50.824;4.360;2024-01-16T02:06:32;4.30;99.90
2391;DHT22;22957;50.824;4.360;2024-01-16T02:08:58;3.80;99.90
2391;DHT22;22957;50.824;4.360;2024-01-16T02:11:25;4.20;99.90
2391;DHT22;22957;50.824;4.360;2024-01-16T02:13:50;4.40;99.90
2391;DHT22;22957;50.824;4.360;2024-01-16T02:16:23;4.10;99.90
2391;DHT22;22957;50.824;4.360;2024-01-16T02:18:50;3.80;99.90
2391;DHT22;22957;50.824;4.360;2024-01-16T02:21:28;3.80;99.90
2391;DHT22;22957;50.824;4.360;2024-01-16T02:23:53;3.50;99.90
2391;DHT22;22957;50.824;4.360;2024-01-16T02:26:19;3.80;99.90
2391;DHT22;22957;50.824;4.360;2024-01-16T02:28:45;3.80;99.90
2391;DHT22;22957;50.824;4.360;2024-01-16T02:31:11;3.90;99.90
2391;DHT22;22957;50.824;4.360;2024-01-16T02:33:37;3.50;99.90
2391;DHT22;22957;50.824;4.360;2024-01-16T02:36:03;4.10;99.90
2391;DHT22;22957;50.824;4.360;2024-01-16T02:38:29;3.90;99.90
2391;DHT22;22957;50.824;4.360;2024-01-16T02:40:54;3.80;99.90
2391;DHT22;22957;50.824;4.360;2024-01-16T02:43:20;3.70;99.90
2391;DHT22;22957;50.824;4.360;2024-01-16T02:45:46;3.80;99.90
2391;DHT22;22957;50.824;4.360;2024-01-16T02:48:11;4.00;99.90
2391;DHT22;22957;50.824;4.360;2024-01-16T02:50:37;3.70;99.90
2391;DHT22;22957;50.824;4.360;2024-01-16T02:53:03;4.00;99.90
2391;DHT22;22957;50.824;4.360;2024-01-16T02:55:29;3.70;99.90
2391;DHT22;22957;50.824;4.360;2024-01-16T02:57:55;3.70;99.90
2391;DHT22;22957;50.824;4.360;2024-01-16T03:00:20;3.60;99.90
2391;DHT22;22957;50.824;4.360;2024-01-16T03:02:47;3.50;99.90
2391;DHT22;22957;50.824;4.360;2024-01-16T03:05:14;4.10;99.90
2391;DHT22;22957;50.824;4.360;2024-01-16T03:07:40;3.80;99.90
2391;DHT22;22957;50.824;4.360;2024-01-16T03:10:06;3.70;99.90
2391;DHT22;22957;50.824;4.360;2024-01-16T03:12:32;4.00;99.90
2391;DHT22;22957;50.824;4.360;2024-01-16T03:14:58;4.20;99.90
2391;DHT22;22957;50.824;4.360;2024-01-16T03:17:24;3.90;99.90
2391;DHT22;22957;50.824;4.360;2024-01-16T03:19:49;4.00;99.90
2391;DHT22;22957;50.824;4.360;2024-01-16T03:22:15;3.90;99.90
2391;DHT22;22957;50.824;4.360;2024-01-16T03:24:40;4.20;99.90
2391;DHT22;22957;50.824;4.360;2024-01-16T03:27:06;3.70;99.90
2391;DHT22;22957;50.824;4.360;2024-01-16T03:29:31;3.90;99.90
2391;DHT22;22957;50.824;4.360;2024-01-16T03:31:59;4.20;99.90
2391;DHT22;22957;50.824;4.360;2024-01-16T03:34:24;4.10;99.90
2391;DHT22;22957;50.824;4.360;2024-01-16T03:36:50;3.80;99.90
2391;DHT22;22957;50.824;4.360;2024-01-16T03:39:15;3.70;99.90
2391;DHT22;22957;50.824;4.360;2024-01-16T03:41:41;4.00;99.90
2391;DHT22;22957;50.824;4.360;2024-01-16T03:44:07;3.90;99.90
2391;DHT22;22957;50.824;4.360;2024-01-16T03:46:32;3.70;99.90
2391;DHT22;22957;50.824;4.360;2024-01-16T03:48:58;3.90;99.90
2391;DHT22;22957;50.824;4.360;2024-01-16T03:51:23;4.00;99.90
2391;DHT22;22957;50.824;4.360;2024-01-16T03:53:49;3.80;99.90
2391;DHT22;22957;50.824;4.360;2024-01-16T03:56:16;4.20;99.90
2391;DHT22;22957;50.824;4.360;2024-01-16T03:58:41;4.20;99.90
2391;DHT22;22957;50.824;4.360;2024-01-16T04:01:07;4.10;99.90
2391;DHT22;22957;50.824;4.360;2024-01-16T04:03:33;4.00;99.90
2391;DHT22;22957;50.824;4.360;2024-01-16T04:06:00;3.90;99.90
2391;DHT22;22957;50.824;4.360;2024-01-16T04:08:25;3.30;99.90
2391;DHT22;22957;50.824;4.360;2024-01-16T04:10:51;3.60;99.90
2391;DHT22;22957;50.824;4.360;2024-01-16T04:13:16;3.30;99.90
2391;DHT22;22957;50.824;4.360;2024-01-16T04:15:43;3.10;99.90
2391;DHT22;22957;50.824;4.360;2024-01-16T04:18:08;3.10;99.90
2391;DHT22;22957;50.824;4.360;2024-01-16T04:20:34;3.20;99.90
2391;DHT22;22957;50.824;4.360;2024-01-16T04:23:00;3.40;99.90
2391;DHT22;22957;50.824;4.360;2024-01-16T04:25:25;3.70;99.90
2391;DHT22;22957;50.824;4.360;2024-01-16T04:27:51;3.80;99.90
2391;DHT22;22957;50.824;4.360;2024-01-16T04:30:16;3.80;99.90
2391;DHT22;22957;50.824;4.360;2024-01-16T04:32:42;3.70;99.90
2391;DHT22;22957;50.824;4.360;2024-01-16T04:35:08;3.20;99.90
2391;DHT22;22957;50.824;4.360;2024-01-16T04:37:33;3.70;99.90
2391;DHT22;22957;50.824;4.360;2024-01-16T04:39:59;3.60;99.90
2391;DHT22;22957;50.824;4.360;2024-01-16T04:42:25;3.50;99.90
2391;DHT22;22957;50.824;4.360;2024-01-16T04:44:50;3.30;99.90
2391;DHT22;22957;50.824;4.360;2024-01-16T04:47:16;3.20;99.90
2391;DHT22;22957;50.824;4.360;2024-01-16T04:49:42;3.50;99.90
2391;DHT22;22957;50.824;4.360;2024-01-16T04:52:08;3.70;99.90
2391;DHT22;22957;50.824;4.360;2024-01-16T04:54:33;3.30;99.90
2391;DHT22;22957;50.824;4.360;2024-01-16T04:56:59;3.50;99.90
2391;DHT22;22957;50.824;4.360;2024-01-16T04:59:25;3.00;99.90
2391;DHT22;22957;50.824;4.360;2024-01-16T05:01:51;3.10;99.90
2391;DHT22;22957;50.824;4.360;2024-01-16T05:04:17;3.70;99.90
2391;DHT22;22957;50.824;4.360;2024-01-16T05:06:42;4.00;99.90
2391;DHT22;22957;50.824;4.360;2024-01-16T05:09:08;3.80;99.90
2391;DHT22;22957;50.824;4.360;2024-01-16T05:11:35;3.50;99.90
2391;DHT22;22957;50.824;4.360;2024-01-16T05:14:00;3.60;99.90
2391;DHT22;22957;50.824;4.360;2024-01-16T05:16:27;3.80;99.90
2391;DHT22;22957;50.824;4.360;2024-01-16T05:18:53;3.60;99.90
2391;DHT22;22957;50.824;4.360;2024-01-16T05:21:19;3.50;99.90
2391;DHT22;22957;50.824;4.360;2024-01-16T05:23:45;3.60;99.90
2391;DHT22;22957;50.824;4.360;2024-01-16T05:26:11;3.30;99.90
2391;DHT22;22957;50.824;4.360;2024-01-16T05:28:36;3.80;99.90
2391;DHT22;22957;50.824;4.360;2024-01-16T05:31:03;3.70;99.90
2391;DHT22;22957;50.824;4.360;2024-01-16T05:33:29;2.90;99.90
2391;DHT22;22957;50.824;4.360;2024-01-16T05:35:57;3.20;99.90
2391;DHT22;22957;50.824;4.360;2024-01-16T05:38:22;2.90;99.90
2391;DHT22;22957;50.824;4.360;2024-01-16T05:40:48;2.40;99.90
2391;DHT22;22957;50.824;4.360;2024-01-16T05:43:13;2.60;99.90
2391;DHT22;22957;50.824;4.360;2024-01-16T05:45:39;2.70;99.90
2391;DHT22;22957;50.824;4.360;2024-01-16T05:48:05;2.50;99.90
2391;DHT22;22957;50.824;4.360;2024-01-16T05:50:33;2.80;99.90
2391;DHT22;22957;50.824;4.360;2024-01-16T05:52:59;2.80;99.90
2391;DHT22;22957;50.824;4.360;2024-01-16T05:55:24;2.80;99.90
2391;DHT22;22957;50.824;4.360;2024-01-16T05:57:50;2.50;99.90
2391;DHT22;22957;50.824;4.360;2024-01-16T06:00:16;2.60;99.90
2391;DHT22;22957;50.824;4.360;2024-01-16T06:02:43;2.40;99.90
2391;DHT22;22957;50.824;4.360;2024-01-16T06:05:09;2.60;99.90
2391;DHT22;22957;50.824;4.360;2024-01-16T06:07:35;2.60;99.90
2391;DHT22;22957;50.824;4.360;2024-01-16T06:10:00;3.20;99.90
2391;DHT22;22957;50.824;4.360;2024-01-16T06:12:26;2.30;99.90
2391;DHT22;22957;50.824;4.360;2024-01-16T06:14:51;2.50;99.90
2391;DHT22;22957;50.824;4.360;2024-01-16T06:17:17;2.60;99.90
2391;DHT22;22957;50.824;4.360;2024-01-16T06:19:42;2.60;99.90
2391;DHT22;22957;50.824;4.360;2024-01-16T06:22:08;3.00;99.90
2391;DHT22;22957;50.824;4.360;2024-01-16T06:24:34;3.00;99.90
2391;DHT22;22957;50.824;4.360;2024-01-16T06:27:05;3.30;99.90
2391;DHT22;22957;50.824;4.360;2024-01-16T06:29:34;2.90;99.90
2391;DHT22;22957;50.824;4.360;2024-01-16T06:32:00;2.80;99.90
2391;DHT22;22957;50.824;4.360;2024-01-16T06:34:26;2.30;99.90
2391;DHT22;22957;50.824;4.360;2024-01-16T06:36:52;2.60;99.90
2391;DHT22;22957;50.824;4.360;2024-01-16T06:39:18;2.70;99.90
2391;DHT22;22957;50.824;4.360;2024-01-16T06:41:43;2.60;99.90
2391;DHT22;22957;50.824;4.360;2024-01-16T06:44:09;2.70;99.90
2391;DHT22;22957;50.824;4.360;2024-01-16T06:46:34;3.10;99.90
2391;DHT22;22957;50.824;4.360;2024-01-16T06:49:00;3.00;99.90
2391;DHT22;22957;50.824;4.360;2024-01-16T06:51:26;2.60;99.90
2391;DHT22;22957;50.824;4.360;2024-01-16T06:53:52;2.80;99.90
2391;DHT22;22957;50.824;4.360;2024-01-16T06:56:18;2.90;99.90
2391;DHT22;22957;50.824;4.360;2024-01-16T06:58:43;2.50;99.90
2391;DHT22;22957;50.824;4.360;2024-01-16T07:01:09;2.40;99.90
2391;DHT22;22957;50.824;4.360;2024-01-16T07:03:35;2.90;99.90
2391;DHT22;22957;50.824;4.360;2024-01-16T07:06:01;2.80;99.90
2391;DHT22;22957;50.824;4.360;2024-01-16T07:08:26;2.90;99.90
2391;DHT22;22957;50.824;4.360;2024-01-16T07:10:52;3.10;99.90
2391;DHT22;22957;50.824;4.360;2024-01-16T07:13:19;2.50;99.90
2391;DHT22;22957;50.824;4.360;2024-01-16T07:15:44;2.70;99.90
2391;DHT22;22957;50.824;4.360;2024-01-16T07:18:10;2.70;99.90
2391;DHT22;22957;50.824;4.360;2024-01-16T07:20:35;2.20;99.90
2391;DHT22;22957;50.824;4.360;2024-01-16T07:23:01;2.60;99.90
2391;DHT22;22957;50.824;4.360;2024-01-16T07:25:26;2.60;99.90
2391;DHT22;22957;50.824;4.360;2024-01-16T07:27:52;2.20;99.90
2391;DHT22;22957;50.824;4.360;2024-01-16T07:30:18;2.00;99.90
2391;DHT22;22957;50.824;4.360;2024-01-16T07:32:43;2.30;99.90
2391;DHT22;22957;50.824;4.360;2024-01-16T07:35:09;2.70;99.90
2391;DHT22;22957;50.824;4.360;2024-01-16T07:37:35;2.40;99.90
2391;DHT22;22957;50.824;4.360;2024-01-16T07:40:00;2.60;99.90
2391;DHT22;22957;50.824;4.360;2024-01-16T07:42:26;2.70;99.90
2391;DHT22;22957;50.824;4.360;2024-01-16T07:44:52;2.70;99.90
2391;DHT22;22957;50.824;4.360;2024-01-16T07:47:18;2.80;99.90
2391;DHT22;22957;50.824;4.360;2024-01-16T07:49:43;3.10;99.90
2391;DHT22;22957;50.824;4.360;2024-01-16T07:52:09;2.60;99.90
2391;DHT22;22957;50.824;4.360;2024-01-16T07:54:34;2.80;99.90
2391;DHT22;22957;50.824;4.360;2024-01-16T07:57:00;3.20;99.90
2391;DHT22;22957;50.824;4.360;2024-01-16T07:59:26;2.80;99.90
2391;DHT22;22957;50.824;4.360;2024-01-16T08:01:52;3.30;99.90
2391;DHT22;22957;50.824;4.360;2024-01-16T08:04:18;3.20;99.90
2391;DHT22;22957;50.824;4.360;2024-01-16T08:06:45;3.10;99.90
2391;DHT22;22957;50.824;4.360;2024-01-16T08:09:11;3.40;99.90
2391;DHT22;22957;50.824;4.360;2024-01-16T08:11:37;3.40;99.90
2391;DHT22;22957;50.824;4.360;2024-01-16T08:14:05;3.10;99.90
2391;DHT22;22957;50.824;4.360;2024-01-16T08:16:30;3.50;99.90
2391;DHT22;22957;50.824;4.360;2024-01-16T08:18:56;3.20;99.90
2391;DHT22;22957;50.824;4.360;2024-01-16T08:21:21;3.40;99.90
2391;DHT22;22957;50.824;4.360;2024-01-16T08:23:47;3.40;99.90
2391;DHT22;22957;50.824;4.360;2024-01-16T08:26:12;3.50;99.90
2391;DHT22;22957;50.824;4.360;2024-01-16T08:28:38;3.70;99.90
2391;DHT22;22957;50.824;4.360;2024-01-16T08:31:04;3.50;99.90
2391;DHT22;22957;50.824;4.360;2024-01-16T08:33:30;3.50;99.90
2391;DHT22;22957;50.824;4.360;2024-01-16T08:35:55;3.40;99.90
2391;DHT22;22957;50.824;4.360;2024-01-16T08:38:21;3.70;99.90
2391;DHT22;22957;50.824;4.360;2024-01-16T08:40:46;3.50;99.90
2391;DHT22;22957;50.824;4.360;2024-01-16T08:43:12;3.20;99.90
2391;DHT22;22957;50.824;4.360;2024-01-16T08:45:37;3.80;99.90
2391;DHT22;22957;50.824;4.360;2024-01-16T08:48:03;3.30;99.90
2391;DHT22;22957;50.824;4.360;2024-01-16T08:50:29;3.50;99.90
2391;DHT22;22957;50.824;4.360;2024-01-16T08:52:55;3.70;99.90
2391;DHT22;22957;50.824;4.360;2024-01-16T08:55:20;3.70;99.90
2391;DHT22;22957;50.824;4.360;2024-01-16T08:57:46;3.80;99.90
2391;DHT22;22957;50.824;4.360;2024-01-16T09:00:12;4.10;99.90
2391;DHT22;22957;50.824;4.360;2024-01-16T09:02:37;4.40;99.90
2391;DHT22;22957;50.824;4.360;2024-01-16T09:05:03;4.30;99.90
2391;DHT22;22957;50.824;4.360;2024-01-16T09:07:30;3.90;99.90
2391;DHT22;22957;50.824;4.360;2024-01-16T09:09:56;4.10;99.90
2391;DHT22;22957;50.824;4.360;2024-01-16T09:12:21;4.00;99.90
2391;DHT22;22957;50.824;4.360;2024-01-16T09:14:47;4.00;99.90
2391;DHT22;22957;50.824;4.360;2024-01-16T09:17:12;3.80;99.90
2391;DHT22;22957;50.824;4.360;2024-01-16T09:19:38;3.90;99.90
2391;DHT22;22957;50.824;4.360;2024-01-16T09:22:04;4.10;99.90
2391;DHT22;22957;50.824;4.360;2024-01-16T09:24:30;4.40;99.90
2391;DHT22;22957;50.824;4.360;2024-01-16T09:26:56;4.70;99.90
2391;DHT22;22957;50.824;4.360;2024-01-16T09:29:23;5.10;99.90
2391;DHT22;22957;50.824;4.360;2024-01-16T09:31:50;5.00;99.90
2391;DHT22;22957;50.824;4.360;2024-01-16T09:34:15;4.90;99.90
2391;DHT22;22957;50.824;4.360;2024-01-16T09:36:42;5.30;99.90
2391;DHT22;22957;50.824;4.360;2024-01-16T09:39:08;5.00;99.90
2391;DHT22;22957;50.824;4.360;2024-01-16T09:41:34;5.10;99.90
2391;DHT22;22957;50.824;4.360;2024-01-16T09:44:00;5.20;99.90
2391;DHT22;22957;50.824;4.360;2024-01-16T09:46:26;4.80;99.90
2391;DHT22;22957;50.824;4.360;2024-01-16T09:48:54;5.20;99.90
2391;DHT22;22957;50.824;4.360;2024-01-16T09:51:20;4.90;99.90
2391;DHT22;22957;50.824;4.360;2024-01-16T09:53:46;4.80;99.90
2391;DHT22;22957;50.824;4.360;2024-01-16T09:56:16;4.90;99.90
2391;DHT22;22957;50.824;4.360;2024-01-16T09:58:48;4.90;99.90
2391;DHT22;22957;50.824;4.360;2024-01-16T10:01:15;5.60;99.90
2391;DHT22;22957;50.824;4.360;2024-01-16T10:03:44;5.90;99.90
2391;DHT22;22957;50.824;4.360;2024-01-16T10:06:11;6.30;99.90
2391;DHT22;22957;50.824;4.360;2024-01-16T10:08:37;6.50;99.90
2391;DHT22;22957;50.824;4.360;2024-01-16T10:11:03;6.20;99.90
2391;DHT22;22957;50.824;4.360;2024-01-16T10:13:28;6.70;99.90
2391;DHT22;22957;50.824;4.360;2024-01-16T10:15:55;7.60;99.90
2391;DHT22;22957;50.824;4.360;2024-01-16T10:18:25;7.50;99.90
2391;DHT22;22957;50.824;4.360;2024-01-16T10:20:51;7.30;99.90
2391;DHT22;22957;50.824;4.360;2024-01-16T10:23:29;6.30;99.90
2391;DHT22;22957;50.824;4.360;2024-01-16T10:26:08;6.10;99.90
2391;DHT22;22957;50.824;4.360;2024-01-16T10:28:35;6.10;99.90
2391;DHT22;22957;50.824;4.360;2024-01-16T10:31:02;6.40;99.90
2391;DHT22;22957;50.824;4.360;2024-01-16T10:33:28;6.30;99.90
2391;DHT22;22957;50.824;4.360;2024-01-16T10:36:10;6.00;99.90
2391;DHT22;22957;50.824;4.360;2024-01-16T10:38:37;5.50;99.90
2391;DHT22;22957;50.824;4.360;2024-01-16T10:41:11;5.60;99.90
2391;DHT22;22957;50.824;4.360;2024-01-16T10:43:38;5.90;99.90
2391;DHT22;22957;50.824;4.360;2024-01-16T10:48:33;6.80;99.90
2391;DHT22;22957;50.824;4.360;2024-01-16T10:50:59;6.20;99.90
2391;DHT22;22957;50.824;4.360;2024-01-16T10:53:25;6.80;99.90
2391;DHT22;22957;50.824;4.360;2024-01-16T10:55:53;7.30;99.90
2391;DHT22;22957;50.824;4.360;2024-01-16T10:58:22;7.20;99.90
2391;DHT22;22957;50.824;4.360;2024-01-16T11:00:52;7.40;99.90
2391;DHT22;22957;50.824;4.360;2024-01-16T11:03:40;7.10;99.90
2391;DHT22;22957;50.824;4.360;2024-01-16T11:06:08;7.40;99.90
2391;DHT22;22957;50.824;4.360;2024-01-16T11:08:37;7.90;99.90
2391;DHT22;22957;50.824;4.360;2024-01-16T11:11:04;8.50;99.90
2391;DHT22;22957;50.824;4.360;2024-01-16T11:13:34;8.60;99.90
2391;DHT22;22957;50.824;4.360;2024-01-16T11:16:02;8.70;99.90
2391;DHT22;22957;50.824;4.360;2024-01-16T11:18:30;8.50;99.90
2391;DHT22;22957;50.824;4.360;2024-01-16T11:20:58;8.50;99.90
2391;DHT22;22957;50.824;4.360;2024-01-16T11:23:24;7.50;99.90
2391;DHT22;22957;50.824;4.360;2024-01-16T11:25:49;8.00;99.90
2391;DHT22;22957;50.824;4.360;2024-01-16T11:28:15;8.40;99.90
2391;DHT22;22957;50.824;4.360;2024-01-16T11:30:42;8.60;99.90
2391;DHT22;22957;50.824;4.360;2024-01-16T11:35:56;8.50;99.90
2391;DHT22;22957;50.824;4.360;2024-01-16T11:38:23;8.50;99.90
2391;DHT22;22957;50.824;4.360;2024-01-16T11:40:49;8.20;99.90
2391;DHT22;22957;50.824;4.360;2024-01-16T11:46:02;7.50;99.90
2391;DHT22;22957;50.824;4.360;2024-01-16T11:48:28;7.50;99.90
2391;DHT22;22957;50.824;4.360;2024-01-16T11:50:54;7.40;99.90
2391;DHT22;22957;50.824;4.360;2024-01-16T11:53:38;7.50;99.90
2391;DHT22;22957;50.824;4.360;2024-01-16T12:01:35;7.00;99.90
2391;DHT22;22957;50.824;4.360;2024-01-16T12:04:02;7.30;99.90
2391;DHT22;22957;50.824;4.360;2024-01-16T12:06:28;7.20;99.90
2391;DHT22;22957;50.824;4.360;2024-01-16T12:09:13;7.20;99.90
2391;DHT22;22957;50.824;4.360;2024-01-16T12:11:42;7.40;99.90
2391;DHT22;22957;50.824;4.360;2024-01-16T12:14:14;7.40;99.90
2391;DHT22;22957;50.824;4.360;2024-01-16T12:16:39;7.60;99.90
2391;DHT22;22957;50.824;4.360;2024-01-16T12:19:08;7.60;99.90
2391;DHT22;22957;50.824;4.360;2024-01-16T12:21:38;8.10;99.90
2391;DHT22;22957;50.824;4.360;2024-01-16T12:24:04;6.90;99.90
2391;DHT22;22957;50.824;4.360;2024-01-16T12:26:30;7.10;99.90
2391;DHT22;22957;50.824;4.360;2024-01-16T12:28:57;7.10;99.90
2391;DHT22;22957;50.824;4.360;2024-01-16T12:31:22;6.80;99.90
2391;DHT22;22957;50.824;4.360;2024-01-16T12:33:52;6.90;99.90
2391;DHT22;22957;50.824;4.360;2024-01-16T12:36:18;7.00;99.90
2391;DHT22;22957;50.824;4.360;2024-01-16T12:38:43;7.20;99.90
2391;DHT22;22957;50.824;4.360;2024-01-16T12:41:10;7.10;99.90
2391;DHT22;22957;50.824;4.360;2024-01-16T12:43:37;7.20;99.90
2391;DHT22;22957;50.824;4.360;2024-01-16T12:46:03;6.70;99.90
2391;DHT22;22957;50.824;4.360;2024-01-16T12:48:29;7.20;99.90
2391;DHT22;22957;50.824;4.360;2024-01-16T12:51:04;7.30;99.90
2391;DHT22;22957;50.824;4.360;2024-01-16T12:53:30;7.40;99.90
2391;DHT22;22957;50.824;4.360;2024-01-16T12:55:58;7.10;99.90
2391;DHT22;22957;50.824;4.360;2024-01-16T12:58:37;7.40;99.90
2391;DHT22;22957;50.824;4.360;2024-01-16T13:01:25;7.90;99.90
2391;DHT22;22957;50.824;4.360;2024-01-16T13:03:52;7.90;99.90
2391;DHT22;22957;50.824;4.360;2024-01-16T13:06:18;8.00;99.90
2391;DHT22;22957;50.824;4.360;2024-01-16T13:08:48;8.20;99.90
2391;DHT22;22957;50.824;4.360;2024-01-16T13:11:14;7.20;99.90
2391;DHT22;22957;50.824;4.360;2024-01-16T13:13:47;7.30;99.90
2391;DHT22;22957;50.824;4.360;2024-01-16T13:16:17;7.40;99.90
2391;DHT22;22957;50.824;4.360;2024-01-16T13:18:42;7.30;99.90
2391;DHT22;22957;50.824;4.360;2024-01-16T13:21:08;7.40;99.90
2391;DHT22;22957;50.824;4.360;2024-01-16T13:23:35;6.70;99.90
2391;DHT22;22957;50.824;4.360;2024-01-16T13:26:00;6.60;99.90
2391;DHT22;22957;50.824;4.360;2024-01-16T13:28:29;6.00;99.90
2391;DHT22;22957;50.824;4.360;2024-01-16T13:30:55;5.80;99.90
2391;DHT22;22957;50.824;4.360;2024-01-16T13:33:23;6.00;99.90
2391;DHT22;22957;50.824;4.360;2024-01-16T13:35:52;7.10;99.90
2391;DHT22;22957;50.824;4.360;2024-01-16T13:38:19;6.40;99.90
2391;DHT22;22957;50.824;4.360;2024-01-16T13:40:45;6.20;99.90
2391;DHT22;22957;50.824;4.360;2024-01-16T13:43:11;6.80;99.90
2391;DHT22;22957;50.824;4.360;2024-01-16T13:45:37;6.50;99.90
2391;DHT22;22957;50.824;4.360;2024-01-16T13:48:04;6.50;99.90
2391;DHT22;22957;50.824;4.360;2024-01-16T13:50:31;6.60;99.90
2391;DHT22;22957;50.824;4.360;2024-01-16T13:52:56;6.80;99.90
2391;DHT22;22957;50.824;4.360;2024-01-16T13:55:22;6.60;99.90
2391;DHT22;22957;50.824;4.360;2024-01-16T13:57:47;6.70;99.90
2391;DHT22;22957;50.824;4.360;2024-01-16T14:00:14;6.60;99.90
2391;DHT22;22957;50.824;4.360;2024-01-16T14:02:45;6.70;99.90
2391;DHT22;22957;50.824;4.360;2024-01-16T14:05:18;6.50;99.90
2391;DHT22;22957;50.824;4.360;2024-01-16T14:07:45;6.10;99.90
2391;DHT22;22957;50.824;4.360;2024-01-16T14:10:16;6.20;99.90
2391;DHT22;22957;50.824;4.360;2024-01-16T14:12:43;5.80;99.90
2391;DHT22;22957;50.824;4.360;2024-01-16T14:15:10;6.20;99.90
2391;DHT22;22957;50.824;4.360;2024-01-16T14:17:48;6.30;99.90
2391;DHT22;22957;50.824;4.360;2024-01-16T14:20:15;6.30;99.90
2391;DHT22;22957;50.824;4.360;2024-01-16T14:22:41;6.20;99.90
2391;DHT22;22957;50.824;4.360;2024-01-16T14:25:08;6.60;99.90
2391;DHT22;22957;50.824;4.360;2024-01-16T14:27:44;6.60;99.90
2391;DHT22;22957;50.824;4.360;2024-01-16T14:30:14;6.60;99.90
2391;DHT22;22957;50.824;4.360;2024-01-16T14:32:41;6.80;99.90
2391;DHT22;22957;50.824;4.360;2024-01-16T14:35:07;7.00;99.90
2391;DHT22;22957;50.824;4.360;2024-01-16T14:37:35;7.00;99.90
2391;DHT22;22957;50.824;4.360;2024-01-16T14:40:02;6.60;99.90
2391;DHT22;22957;50.824;4.360;2024-01-16T14:42:41;6.60;99.90
2391;DHT22;22957;50.824;4.360;2024-01-16T14:45:07;6.60;99.90
2391;DHT22;22957;50.824;4.360;2024-01-16T14:47:34;6.30;99.90
2391;DHT22;22957;50.824;4.360;2024-01-16T14:49:59;6.20;99.90
2391;DHT22;22957;50.824;4.360;2024-01-16T14:52:25;5.80;99.90
2391;DHT22;22957;50.824;4.360;2024-01-16T14:54:50;5.50;99.90
2391;DHT22;22957;50.824;4.360;2024-01-16T14:57:18;5.70;99.90
2391;DHT22;22957;50.824;4.360;2024-01-16T14:59:43;5.80;99.90
2391;DHT22;22957;50.824;4.360;2024-01-16T15:02:10;5.50;99.90
2391;DHT22;22957;50.824;4.360;2024-01-16T15:04:42;6.60;99.90
2391;DHT22;22957;50.824;4.360;2024-01-16T15:07:09;6.10;99.90
2391;DHT22;22957;50.824;4.360;2024-01-16T15:09:35;5.50;99.90
2391;DHT22;22957;50.824;4.360;2024-01-16T15:12:04;5.50;99.90
2391;DHT22;22957;50.824;4.360;2024-01-16T15:14:30;5.80;99.90
2391;DHT22;22957;50.824;4.360;2024-01-16T15:16:56;5.60;99.90
2391;DHT22;22957;50.824;4.360;2024-01-16T15:19:21;5.40;99.90
2391;DHT22;22957;50.824;4.360;2024-01-16T15:21:47;5.30;99.90
2391;DHT22;22957;50.824;4.360;2024-01-16T15:24:13;5.30;99.90
2391;DHT22;22957;50.824;4.360;2024-01-16T15:26:44;5.30;99.90
2391;DHT22;22957;50.824;4.360;2024-01-16T15:29:10;5.20;99.90
2391;DHT22;22957;50.824;4.360;2024-01-16T15:31:37;5.50;99.90
2391;DHT22;22957;50.824;4.360;2024-01-16T15:34:03;5.00;99.90
2391;DHT22;22957;50.824;4.360;2024-01-16T15:36:28;4.70;99.90
2391;DHT22;22957;50.824;4.360;2024-01-16T15:38:54;4.80;99.90
2391;DHT22;22957;50.824;4.360;2024-01-16T15:41:19;5.20;99.90
2391;DHT22;22957;50.824;4.360;2024-01-16T15:43:45;5.20;99.90
2391;DHT22;22957;50.824;4.360;2024-01-16T15:46:11;4.90;99.90
2391;DHT22;22957;50.824;4.360;2024-01-16T15:48:39;5.60;99.90
2391;DHT22;22957;50.824;4.360;2024-01-16T15:51:05;5.50;99.90
2391;DHT22;22957;50.824;4.360;2024-01-16T15:53:33;5.60;99.90
2391;DHT22;22957;50.824;4.360;2024-01-16T15:56:00;5.60;99.90
2391;DHT22;22957;50.824;4.360;2024-01-16T15:58:25;5.50;99.90
2391;DHT22;22957;50.824;4.360;2024-01-16T16:00:51;5.40;99.90
2391;DHT22;22957;50.824;4.360;2024-01-16T16:03:16;4.90;99.90
2391;DHT22;22957;50.824;4.360;2024-01-16T16:05:43;5.30;99.90
2391;DHT22;22957;50.824;4.360;2024-01-16T16:08:09;4.80;99.90
2391;DHT22;22957;50.824;4.360;2024-01-16T16:10:35;4.80;99.90
2391;DHT22;22957;50.824;4.360;2024-01-16T16:13:01;5.10;99.90